Time;durP1;ratioP1;P1;durP2;ratioP2;P2;SDS_P1;SDS_P2;PMS_P1;PMS_P2;Temp;Humidity;BMP_temperature;BMP_pressure;BME280_temperature;BME280_humidity;BME280_pressure;Samples;Min_cycle;Max_cycle;Signal;HPM_P1;HPM_P2
2021/09/14 00:00:10;;;;;;;4.82;2.95;;;15.70;87.40;;;;;;2039107;29;20048;-96
2021/09/14 00:01:30;;;;;;;5.53;2.78;;;15.60;87.30;;;;;;2031537;29;20056;-96
2021/09/14 00:02:51;;;;;;;5.05;2.80;;;15.60;87.40;;;;;;2025807;29;20040;-96
2021/09/14 00:04:10;;;;;;;4.45;2.80;;;15.70;87.40;;;;;;2025788;29;20049;-96
2021/09/14 00:05:29;;;;;;;5.35;2.97;;;15.60;87.40;;;;;;2041406;29;20032;-96
2021/09/14 00:06:50;;;;;;;5.03;2.85;;;15.60;87.50;;;;;;2044150;29;20079;-96
2021/09/14 00:08:10;;;;;;;5.95;3.50;;;15.60;87.50;;;;;;2034861;29;20035;-96
2021/09/14 00:09:31;;;;;;;4.55;3.05;;;15.60;87.60;;;;;;2035531;29;20044;-96
2021/09/14 00:10:50;;;;;;;4.32;2.83;;;15.60;87.50;;;;;;2034950;29;20056;-96
2021/09/14 00:12:10;;;;;;;5.78;2.97;;;15.60;87.60;;;;;;2041860;29;20047;-96
2021/09/14 00:13:29;;;;;;;6.65;2.85;;;15.60;87.60;;;;;;2037330;29;20048;-96
2021/09/14 00:14:49;;;;;;;5.63;3.30;;;15.60;87.70;;;;;;2037040;29;20041;-96
2021/09/14 00:16:08;;;;;;;4.38;2.90;;;15.60;87.60;;;;;;2032968;29;20045;-96
2021/09/14 00:17:29;;;;;;;4.85;2.88;;;15.50;87.60;;;;;;2029216;29;20049;-96
2021/09/14 00:18:50;;;;;;;4.78;3.08;;;15.50;87.60;;;;;;2052124;29;20035;-96
2021/09/14 00:20:14;;;;;;;4.25;2.75;;;15.50;87.70;;;;;;2047627;28;20040;-96
2021/09/14 00:21:33;;;;;;;4.93;2.95;;;15.50;87.70;;;;;;2028340;29;20124;-96
2021/09/14 00:22:52;;;;;;;4.47;2.90;;;15.50;87.70;;;;;;2037801;29;20059;-96
2021/09/14 00:24:12;;;;;;;4.78;2.72;;;15.50;87.70;;;;;;2027352;29;20044;-96
2021/09/14 00:25:32;;;;;;;5.82;2.92;;;15.50;87.80;;;;;;2037118;29;20115;-95
2021/09/14 00:26:51;;;;;;;4.25;2.75;;;15.50;88.10;;;;;;2035394;29;20040;-96
2021/09/14 00:28:11;;;;;;;4.63;2.75;;;15.50;87.90;;;;;;2034612;29;20040;-96
2021/09/14 00:29:30;;;;;;;4.93;3.00;;;15.50;87.90;;;;;;2030173;29;20068;-96
2021/09/14 00:30:49;;;;;;;4.78;3.20;;;15.50;87.90;;;;;;2024162;29;20123;-96
2021/09/14 00:32:10;;;;;;;5.57;3.05;;;15.40;87.90;;;;;;2038118;29;20075;-96
2021/09/14 00:33:31;;;;;;;;;;;15.50;88.00;;;;;;2034149;29;20043;-96
2021/09/14 00:34:50;;;;;;;4.68;2.78;;;15.40;87.80;;;;;;2034969;29;19914;-96
2021/09/14 00:36:10;;;;;;;5.07;3.08;;;15.50;87.90;;;;;;2031795;29;20511;-96
2021/09/14 00:37:29;;;;;;;4.40;2.70;;;15.40;87.90;;;;;;2033843;29;20126;-96
2021/09/14 00:38:48;;;;;;;5.10;3.40;;;15.40;87.90;;;;;;2029655;29;20060;-96
2021/09/14 00:40:08;;;;;;;4.63;3.08;;;15.40;87.90;;;;;;2041911;29;20040;-96
2021/09/14 00:41:28;;;;;;;5.63;3.38;;;15.40;87.90;;;;;;2030225;29;20142;-96
2021/09/14 00:42:48;;;;;;;5.07;3.20;;;15.40;87.90;;;;;;2033735;29;20060;-96
2021/09/14 00:44:07;;;;;;;5.45;3.20;;;15.40;87.90;;;;;;2028440;29;20049;-96
2021/09/14 00:45:27;;;;;;;5.45;3.17;;;15.40;88.00;;;;;;2034976;29;20044;-96
2021/09/14 00:46:46;;;;;;;4.63;2.90;;;15.40;88.00;;;;;;2047512;28;20530;-96
2021/09/14 00:48:06;;;;;;;5.53;3.20;;;15.40;88.00;;;;;;2024983;29;20077;-96
2021/09/14 00:49:25;;;;;;;5.30;3.28;;;15.40;87.90;;;;;;2033973;29;20056;-96
2021/09/14 00:50:45;;;;;;;4.70;3.15;;;15.40;87.90;;;;;;2027117;29;20071;-96
2021/09/14 00:52:04;;;;;;;5.07;3.28;;;15.40;87.90;;;;;;2034841;29;20066;-96
2021/09/14 00:53:26;;;;;;;4.70;2.92;;;15.40;88.00;;;;;;2038941;29;20060;-96
2021/09/14 00:54:45;;;;;;;6.00;3.40;;;15.40;88.00;;;;;;2033989;29;20499;-96
2021/09/14 00:56:05;;;;;;;4.60;3.03;;;15.30;88.00;;;;;;2034444;29;20040;-96
2021/09/14 00:57:24;;;;;;;5.47;3.30;;;15.30;88.10;;;;;;2040610;29;20048;-96
2021/09/14 00:58:44;;;;;;;4.88;3.22;;;15.30;88.10;;;;;;2046021;29;20067;-96
2021/09/14 01:00:08;;;;;;;5.30;3.22;;;15.30;88.10;;;;;;2035492;29;20036;-96
2021/09/14 01:01:27;;;;;;;5.32;3.42;;;15.30;88.20;;;;;;2033211;29;20044;-95
2021/09/14 01:02:47;;;;;;;5.10;3.00;;;15.30;88.20;;;;;;2045754;29;20039;-96
2021/09/14 01:04:09;;;;;;;7.10;3.53;;;15.30;88.20;;;;;;2039954;29;20039;-96
2021/09/14 01:05:28;;;;;;;4.25;2.90;;;15.20;88.20;;;;;;2031553;29;20515;-96
2021/09/14 01:06:48;;;;;;;4.50;3.00;;;15.20;88.10;;;;;;2034741;29;20496;-96
2021/09/14 01:08:08;;;;;;;4.20;2.90;;;15.30;88.20;;;;;;2039633;29;20043;-95
2021/09/14 01:09:30;;;;;;;4.68;2.97;;;15.30;88.20;;;;;;2046482;29;20039;-96
2021/09/14 01:10:50;;;;;;;4.90;2.95;;;15.30;88.20;;;;;;2045208;29;20040;-96
2021/09/14 01:12:10;;;;;;;4.47;2.80;;;15.20;88.10;;;;;;2045085;29;20043;-96
2021/09/14 01:13:29;;;;;;;4.85;3.20;;;15.30;88.20;;;;;;2038225;29;20399;-96
2021/09/14 01:14:54;;;;;;;5.72;3.13;;;15.30;88.20;;;;;;2028124;29;20040;-95
2021/09/14 01:16:13;;;;;;;4.32;3.10;;;15.20;88.20;;;;;;2040521;29;20048;-96
2021/09/14 01:17:33;;;;;;;4.70;2.90;;;15.20;88.10;;;;;;2036405;29;20048;-96
2021/09/14 01:18:52;;;;;;;5.30;3.17;;;15.30;88.20;;;;;;2041916;29;20048;-96
2021/09/14 01:20:12;;;;;;;5.35;3.45;;;15.30;88.20;;;;;;2037454;29;20036;-96
2021/09/14 01:21:32;;;;;;;5.38;3.10;;;15.30;88.20;;;;;;2033584;29;20063;-96
2021/09/14 01:22:52;;;;;;;5.22;3.22;;;15.20;88.10;;;;;;2041966;29;20040;-96
2021/09/14 01:24:12;;;;;;;5.97;3.60;;;15.20;88.10;;;;;;2041722;29;20043;-95
2021/09/14 01:25:32;;;;;;;5.38;3.50;;;15.20;88.10;;;;;;2029729;29;20040;-96
2021/09/14 01:26:52;;;;;;;7.03;3.28;;;15.20;88.10;;;;;;2040453;29;20052;-95
2021/09/14 01:28:11;;;;;;;4.82;3.15;;;15.20;88.10;;;;;;2021495;29;20111;-96
2021/09/14 01:31:09;;;;;;;5.35;3.00;;;15.20;88.10;;;;;;2041787;29;20048;-96
2021/09/14 01:32:28;;;;;;;5.00;3.17;;;15.20;88.10;;;;;;2044681;29;20039;-95
2021/09/14 01:33:48;;;;;;;4.85;3.05;;;15.20;88.00;;;;;;2037343;29;20052;-96
2021/09/14 01:35:15;;;;;;;4.32;3.03;;;15.20;88.10;;;;;;2043792;29;20509;-96
2021/09/14 01:36:34;;;;;;;5.03;3.00;;;15.20;88.10;;;;;;2040519;29;20115;-96
2021/09/14 01:37:54;;;;;;;3.92;2.78;;;15.20;88.10;;;;;;2037237;29;20055;-96
2021/09/14 01:39:14;;;;;;;4.32;2.78;;;15.20;88.10;;;;;;2040912;29;20501;-96
2021/09/14 01:40:33;;;;;;;5.03;3.40;;;15.20;88.60;;;;;;2043779;29;20047;-94
2021/09/14 01:41:53;;;;;;;4.80;3.30;;;15.20;88.10;;;;;;2033537;29;20040;-95
2021/09/14 01:43:12;;;;;;;4.97;3.50;;;15.20;88.00;;;;;;2031698;29;20311;-95
2021/09/14 01:44:31;;;;;;;4.93;3.00;;;15.20;88.00;;;;;;2027041;29;20115;-96
2021/09/14 01:45:51;;;;;;;4.75;3.00;;;15.20;88.00;;;;;;2032090;29;20048;-96
2021/09/14 01:47:11;;;;;;;4.28;3.00;;;15.20;88.00;;;;;;2031725;29;20039;-95
2021/09/14 01:48:30;;;;;;;4.50;3.00;;;15.10;88.00;;;;;;2038263;29;20043;-96
2021/09/14 01:49:50;;;;;;;5.47;3.05;;;15.10;88.00;;;;;;2036252;29;20048;-96
2021/09/14 01:51:09;;;;;;;4.07;2.60;;;15.10;88.00;;;;;;2043777;29;20048;-96
2021/09/14 01:52:47;;;;;;;5.25;3.03;;;15.10;88.10;;;;;;2040369;29;20044;-95
2021/09/14 01:54:08;;;;;;;5.03;3.15;;;15.10;88.10;;;;;;2052113;28;20138;-96
2021/09/14 01:55:27;;;;;;;6.15;3.03;;;15.10;88.00;;;;;;2036511;29;20047;-96
2021/09/14 01:56:46;;;;;;;5.18;2.80;;;15.10;88.00;;;;;;2051002;28;20490;-95
2021/09/14 01:58:06;;;;;;;4.70;3.03;;;15.10;88.10;;;;;;2043166;29;20052;-96
2021/09/14 01:59:25;;;;;;;4.60;2.95;;;15.10;88.10;;;;;;2053769;28;20051;-96
2021/09/14 02:01:12;;;;;;;4.68;3.33;;;15.00;88.10;;;;;;2042520;29;20059;-95
2021/09/14 02:02:44;;;;;;;4.85;3.05;;;15.10;88.10;;;;;;2050380;28;20039;-95
2021/09/14 02:04:19;;;;;;;5.47;3.00;;;15.10;88.10;;;;;;2032818;29;20122;-95
2021/09/14 02:05:56;;;;;;;6.55;3.20;;;15.00;88.10;;;;;;2043077;29;20035;-95
2021/09/14 02:07:36;;;;;;;5.18;3.13;;;15.00;88.10;;;;;;2046867;29;20055;-95
2021/09/14 02:41:35;;;;;;;4.72;3.08;;;14.80;88.40;;;;;;2050465;29;20047;-96
2021/09/14 02:43:15;;;;;;;4.75;3.45;;;14.80;88.40;;;;;;2051476;29;20031;-96
2021/09/14 02:59:11;;;;;;;5.80;3.90;;;14.70;88.70;;;;;;2030184;29;20041;-96
2021/09/14 03:00:30;;;;;;;5.25;3.50;;;14.70;88.70;;;;;;2031136;29;20076;-96
2021/09/14 03:01:49;;;;;;;5.78;3.67;;;14.70;88.70;;;;;;2039052;29;20036;-96
2021/09/14 03:03:09;;;;;;;6.53;4.10;;;14.70;88.70;;;;;;2033636;29;20107;-96
2021/09/14 03:04:29;;;;;;;5.53;3.75;;;14.70;88.80;;;;;;2031392;29;20527;-96
2021/09/14 03:05:48;;;;;;;6.22;3.90;;;14.70;88.80;;;;;;2039837;29;20028;-94
2021/09/14 03:07:07;;;;;;;5.90;4.03;;;14.70;88.80;;;;;;2027305;29;20056;-96
2021/09/14 03:08:26;;;;;;;6.07;4.07;;;14.70;88.90;;;;;;2023069;29;20045;-96
2021/09/14 03:09:46;;;;;;;5.70;3.83;;;14.60;88.90;;;;;;2032350;29;20068;-96
2021/09/14 03:11:11;;;;;;;6.85;4.60;;;14.70;89.00;;;;;;2039008;29;20039;-96
2021/09/14 03:12:30;;;;;;;6.13;4.10;;;14.70;89.60;;;;;;2048762;29;20038;-95
2021/09/14 03:13:49;;;;;;;6.35;4.30;;;14.60;89.00;;;;;;2032417;29;20123;-96
2021/09/14 03:15:09;;;;;;;5.88;4.32;;;14.60;89.10;;;;;;2031610;29;20048;-96
2021/09/14 03:16:29;;;;;;;7.30;4.40;;;14.60;89.00;;;;;;2030935;29;20048;-95
2021/09/14 03:17:48;;;;;;;7.50;4.38;;;14.60;89.00;;;;;;2030124;29;20099;-96
2021/09/14 03:19:07;;;;;;;5.70;4.15;;;14.60;89.00;;;;;;2019611;29;20120;-95
2021/09/14 03:20:26;;;;;;;6.20;4.18;;;14.60;89.10;;;;;;2036276;29;20039;-96
2021/09/14 03:21:46;;;;;;;8.15;4.70;;;14.60;89.10;;;;;;2024386;29;20407;-96
2021/09/14 03:23:05;;;;;;;6.97;4.85;;;14.60;89.10;;;;;;2023456;29;20044;-96
2021/09/14 03:24:24;;;;;;;6.97;4.88;;;14.60;89.20;;;;;;2030996;29;20472;-96
2021/09/14 03:25:43;;;;;;;7.00;4.38;;;14.60;89.20;;;;;;2023693;29;20044;-96
2021/09/14 03:27:03;;;;;;;6.60;4.30;;;14.60;89.20;;;;;;2030307;29;20067;-96
2021/09/14 03:28:22;;;;;;;6.10;4.13;;;14.60;89.20;;;;;;2025425;29;20048;-96
2021/09/14 03:29:42;;;;;;;7.88;4.90;;;14.60;89.30;;;;;;2029208;29;20036;-96
2021/09/14 03:31:03;;;;;;;5.97;4.22;;;14.60;89.40;;;;;;2026568;29;20044;-96
2021/09/14 03:32:22;;;;;;;;;;;14.60;89.30;;;;;;2036128;29;20091;-96
2021/09/14 03:33:43;;;;;;;6.35;4.13;;;14.50;89.20;;;;;;2051150;29;20272;-94
2021/09/14 03:35:02;;;;;;;6.53;4.30;;;14.50;89.20;;;;;;2035465;29;20032;-95
2021/09/14 03:36:21;;;;;;;6.80;4.53;;;14.50;89.20;;;;;;2040347;29;20036;-95
2021/09/14 03:37:40;;;;;;;5.72;4.05;;;14.50;89.20;;;;;;2043689;29;20051;-96
2021/09/14 03:38:59;;;;;;;6.68;4.40;;;14.50;89.30;;;;;;2035108;29;20048;-96
2021/09/14 03:40:18;;;;;;;6.32;4.28;;;14.50;89.30;;;;;;2040673;29;20047;-96
2021/09/14 03:41:37;;;;;;;6.43;4.40;;;14.50;89.30;;;;;;2040581;29;20035;-96
2021/09/14 03:42:57;;;;;;;6.70;4.72;;;14.50;89.40;;;;;;2031393;29;20052;-96
2021/09/14 03:44:16;;;;;;;6.30;4.65;;;14.50;89.40;;;;;;2032246;29;20048;-96
2021/09/14 03:45:36;;;;;;;6.50;4.20;;;14.50;89.40;;;;;;2039422;29;20044;-96
2021/09/14 03:46:55;;;;;;;7.68;5.15;;;14.50;90.00;;;;;;2043142;29;20067;-95
2021/09/14 03:48:15;;;;;;;7.05;4.93;;;14.50;89.40;;;;;;2037847;29;20047;-95
2021/09/14 03:49:34;;;;;;;7.93;4.80;;;14.50;89.40;;;;;;2029386;29;20045;-96
2021/09/14 03:50:53;;;;;;;6.57;4.60;;;14.50;89.40;;;;;;2039372;29;20048;-96
2021/09/14 03:52:13;;;;;;;7.95;5.03;;;14.50;89.50;;;;;;2032054;29;20044;-96
2021/09/14 03:53:32;;;;;;;7.88;5.22;;;14.50;89.40;;;;;;2034970;29;20056;-94
2021/09/14 03:54:51;;;;;;;6.72;4.72;;;14.50;89.40;;;;;;2047645;28;20079;-96
2021/09/14 03:56:10;;;;;;;8.57;5.10;;;14.50;89.50;;;;;;2028789;29;20048;-96
2021/09/14 03:57:29;;;;;;;7.07;5.03;;;14.50;89.50;;;;;;2031309;29;20134;-96
2021/09/14 03:58:48;;;;;;;7.00;4.72;;;14.50;89.50;;;;;;2031961;29;20503;-95
2021/09/14 04:00:08;;;;;;;7.15;5.00;;;14.50;89.50;;;;;;2033547;29;20044;-96
2021/09/14 04:01:28;;;;;;;6.85;4.72;;;14.50;89.50;;;;;;2042801;29;20044;-95
2021/09/14 04:02:51;;;;;;;7.35;4.93;;;14.50;89.60;;;;;;2034650;29;20468;-96
2021/09/14 04:04:16;;;;;;;9.23;5.40;;;14.50;89.60;;;;;;2022281;29;20041;-95
2021/09/14 04:05:45;;;;;;;8.20;5.20;;;14.40;89.60;;;;;;2028252;29;20505;-96
2021/09/14 04:10:07;;;;;;;7.50;5.13;;;14.40;89.60;;;;;;2042225;29;20356;-94
2021/09/14 04:11:26;;;;;;;7.78;5.05;;;14.40;89.60;;;;;;2036959;29;20048;-95
2021/09/14 04:12:45;;;;;;;8.77;5.28;;;14.40;89.60;;;;;;2017009;29;20041;-96
2021/09/14 04:14:05;;;;;;;8.00;5.50;;;14.40;89.60;;;;;;2035251;29;20040;-96
2021/09/14 04:15:25;;;;;;;7.45;4.88;;;14.40;89.70;;;;;;2026047;29;20049;-96
2021/09/14 04:16:45;;;;;;;7.35;4.85;;;14.40;89.70;;;;;;2028959;29;20052;-96
2021/09/14 04:18:05;;;;;;;6.45;4.95;;;14.40;89.70;;;;;;2026720;29;20049;-96
2021/09/14 04:19:26;;;;;;;7.95;5.40;;;14.40;89.80;;;;;;2031491;29;20119;-96
2021/09/14 04:20:46;;;;;;;7.45;5.18;;;14.30;89.80;;;;;;2026392;29;20033;-96
2021/09/14 04:22:05;;;;;;;7.25;5.10;;;14.30;89.80;;;;;;2033701;29;20044;-96
2021/09/14 04:23:24;;;;;;;7.75;5.25;;;14.40;89.80;;;;;;2044276;29;20043;-96
2021/09/14 04:24:44;;;;;;;8.13;5.07;;;14.30;89.80;;;;;;2050346;29;20043;-96
2021/09/14 04:26:04;;;;;;;9.05;5.90;;;14.30;89.90;;;;;;2043825;29;20040;-96
2021/09/14 04:27:23;;;;;;;6.85;4.97;;;14.30;89.90;;;;;;2033494;29;20511;-96
2021/09/14 04:28:42;;;;;;;7.07;5.22;;;14.30;89.90;;;;;;2035458;29;20056;-95
2021/09/14 04:30:02;;;;;;;8.57;5.13;;;14.30;89.90;;;;;;2032812;29;20131;-96
2021/09/14 04:31:21;;;;;;;7.68;5.10;;;14.30;89.90;;;;;;2024743;29;20076;-96
2021/09/14 04:32:40;;;;;;;6.88;4.88;;;14.30;89.90;;;;;;2029014;29;20048;-96
2021/09/14 04:33:59;;;;;;;7.65;5.40;;;14.30;90.00;;;;;;2022668;29;20056;-95
2021/09/14 04:35:19;;;;;;;7.15;5.07;;;14.30;90.00;;;;;;2030372;29;20127;-96
2021/09/14 04:36:38;;;;;;;7.93;5.45;;;14.30;90.00;;;;;;2031797;29;20072;-96
2021/09/14 04:37:57;;;;;;;9.70;6.07;;;14.30;90.00;;;;;;2039178;29;20052;-96
2021/09/14 04:39:17;;;;;;;9.02;6.05;;;14.30;90.00;;;;;;2033062;29;20036;-96
2021/09/14 04:40:36;;;;;;;8.10;5.53;;;14.30;90.00;;;;;;2017525;29;20073;-96
2021/09/14 04:41:55;;;;;;;9.02;5.63;;;14.30;90.00;;;;;;2022243;29;20049;-96
2021/09/14 04:43:15;;;;;;;6.85;5.13;;;14.30;90.00;;;;;;2042681;29;20043;-95
2021/09/14 04:44:34;;;;;;;9.05;5.53;;;14.30;90.00;;;;;;2042769;29;20035;-96
2021/09/14 04:45:53;;;;;;;8.85;5.72;;;14.30;90.00;;;;;;2045451;29;20087;-96
2021/09/14 04:47:12;;;;;;;7.18;5.10;;;14.30;90.00;;;;;;2039974;29;20220;-95
2021/09/14 04:48:31;;;;;;;11.00;6.22;;;14.30;90.00;;;;;;2040580;29;20043;-96
2021/09/14 04:49:51;;;;;;;7.00;5.13;;;14.30;90.00;;;;;;2033392;29;20493;-96
2021/09/14 04:51:10;;;;;;;9.15;5.72;;;14.30;90.30;;;;;;2042171;29;20051;-96
2021/09/14 04:52:30;;;;;;;8.23;5.88;;;14.30;90.00;;;;;;2035619;29;20458;-95
2021/09/14 04:53:49;;;;;;;8.52;6.13;;;14.30;90.00;;;;;;2037689;29;20108;-95
2021/09/14 04:55:08;;;;;;;8.38;5.95;;;14.30;90.00;;;;;;2034693;29;20032;-96
2021/09/14 04:56:30;;;;;;;7.70;5.95;;;14.30;90.00;;;;;;2041444;29;20044;-96
2021/09/14 04:57:49;;;;;;;8.80;6.00;;;14.30;90.00;;;;;;2044498;29;20056;-96
2021/09/14 04:59:08;;;;;;;8.77;6.35;;;14.30;90.00;;;;;;2045315;28;20071;-96
2021/09/14 05:00:27;;;;;;;9.63;6.10;;;14.20;90.00;;;;;;2048007;28;20055;-93
2021/09/14 05:01:46;;;;;;;8.10;6.00;;;14.20;90.00;;;;;;2043392;28;20036;-95
2021/09/14 05:03:06;;;;;;;8.35;5.88;;;14.20;90.00;;;;;;2046273;28;20047;-95
2021/09/14 05:04:25;;;;;;;10.80;6.88;;;14.20;90.00;;;;;;2033664;29;20028;-95
2021/09/14 05:05:44;;;;;;;9.00;6.10;;;14.20;90.00;;;;;;2028993;29;20052;-96
2021/09/14 05:07:05;;;;;;;8.93;6.60;;;14.20;90.00;;;;;;2037589;29;20048;-96
2021/09/14 05:08:24;;;;;;;;;;;14.20;90.10;;;;;;2041941;29;20087;-95
2021/09/14 05:09:43;;;;;;;8.57;5.80;;;14.20;90.00;;;;;;2038835;29;19914;-96
2021/09/14 05:11:03;;;;;;;8.55;6.18;;;14.10;90.00;;;;;;2036141;29;20040;-96
2021/09/14 05:12:23;;;;;;;8.38;6.28;;;14.20;90.00;;;;;;2040662;29;20414;-96
2021/09/14 05:13:49;;;;;;;9.43;5.97;;;14.10;90.00;;;;;;2033229;29;20017;-85
2021/09/14 05:15:09;;;;;;;8.43;6.03;;;14.20;90.10;;;;;;2039487;29;20056;-96
2021/09/14 05:16:30;;;;;;;7.85;5.93;;;14.10;90.10;;;;;;2047391;29;20024;-96
2021/09/14 05:17:50;;;;;;;;;;;14.10;90.10;;;;;;2045907;28;20044;-94
2021/09/14 05:19:10;;;;;;;7.30;5.25;;;14.10;90.00;;;;;;2045190;29;19919;-89
2021/09/14 05:20:29;;;;;;;8.05;5.55;;;14.10;90.40;;;;;;2044261;29;20040;-95
2021/09/14 05:21:50;;;;;;;7.85;5.50;;;14.10;90.10;;;;;;2034572;29;20036;-96
2021/09/14 05:23:16;;;;;;;8.20;5.85;;;14.10;90.10;;;;;;2030968;29;20052;-95
2021/09/14 05:24:39;;;;;;;10.05;6.28;;;14.10;90.10;;;;;;2052220;28;20027;-96
2021/09/14 05:26:03;;;;;;;8.30;5.90;;;14.00;90.10;;;;;;2056722;29;20043;-95
2021/09/14 05:27:23;;;;;;;8.80;5.97;;;14.10;90.10;;;;;;2052540;28;20023;-90
2021/09/14 05:28:35;;;;;;;8.87;6.57;;;14.10;90.10;;;;;;2075026;23;20047;-96
2021/09/14 05:29:55;;;;;;;9.07;6.75;;;14.10;90.20;;;;;;2070943;28;20270;-94
2021/09/14 05:31:14;;;;;;;10.05;6.35;;;14.10;90.20;;;;;;2070407;28;20042;-95
2021/09/14 05:32:35;;;;;;;8.85;6.30;;;14.10;90.20;;;;;;2063378;28;20485;-93
2021/09/14 05:33:55;;;;;;;10.63;6.25;;;14.10;90.20;;;;;;2065529;28;20023;-96
2021/09/14 05:35:18;;;;;;;9.90;5.82;;;14.10;90.20;;;;;;2069849;28;20070;-96
2021/09/14 05:36:38;;;;;;;8.05;6.00;;;14.00;90.20;;;;;;2057831;29;20039;-96
2021/09/14 05:37:58;;;;;;;8.90;6.30;;;14.00;90.10;;;;;;2063865;28;20051;-96
2021/09/14 05:39:18;;;;;;;9.45;6.22;;;14.00;90.10;;;;;;2064594;28;20046;-94
2021/09/14 05:40:49;;;;;;;7.93;6.20;;;14.10;90.20;;;;;;2068195;28;20043;-89
2021/09/14 05:42:08;;;;;;;9.38;6.50;;;14.10;90.20;;;;;;2041192;29;20040;-95
2021/09/14 05:43:29;;;;;;;9.50;6.15;;;14.10;90.20;;;;;;2043126;29;20530;-95
2021/09/14 05:44:49;;;;;;;9.38;6.13;;;14.10;90.20;;;;;;2065248;28;20026;-94
2021/09/14 05:46:08;;;;;;;8.85;6.20;;;14.10;90.20;;;;;;2071141;28;20501;-88
2021/09/14 05:47:27;;;;;;;8.27;5.68;;;14.10;90.20;;;;;;2068331;28;20034;-96
2021/09/14 05:48:46;;;;;;;9.60;6.28;;;14.10;90.10;;;;;;2066863;28;20046;-96
2021/09/14 05:50:06;;;;;;;8.88;6.10;;;14.10;90.10;;;;;;2067386;28;20042;-96
2021/09/14 05:51:25;;;;;;;9.38;6.32;;;14.10;90.10;;;;;;2059962;28;20509;-95
2021/09/14 05:52:44;;;;;;;9.20;6.45;;;14.20;90.10;;;;;;2074683;28;20042;-95
2021/09/14 05:54:04;;;;;;;9.00;6.38;;;14.20;90.10;;;;;;2062485;28;20034;-95
2021/09/14 05:55:23;;;;;;;9.38;6.32;;;14.20;90.10;;;;;;2051512;28;20035;-96
2021/09/14 05:56:42;;;;;;;8.70;5.93;;;14.20;90.10;;;;;;2050117;28;20035;-95
2021/09/14 05:58:01;;;;;;;9.85;6.40;;;14.30;90.10;;;;;;2052256;28;20036;-92
2021/09/14 05:59:20;;;;;;;8.15;5.78;;;14.30;90.10;;;;;;2054214;29;20040;-95
2021/09/14 06:00:39;;;;;;;9.48;6.10;;;14.30;90.00;;;;;;2063542;28;20078;-94
2021/09/14 06:01:59;;;;;;;9.25;6.47;;;14.30;90.00;;;;;;2063796;28;20038;-96
2021/09/14 06:03:18;;;;;;;9.48;6.78;;;14.30;90.00;;;;;;2064573;28;20038;-95
2021/09/14 06:04:37;;;;;;;8.95;5.97;;;14.40;90.00;;;;;;2051054;28;20043;-95
2021/09/14 06:05:57;;;;;;;10.10;6.82;;;14.40;90.00;;;;;;2036866;29;20043;-95
2021/09/14 06:07:16;;;;;;;8.93;6.32;;;14.40;89.90;;;;;;2049930;28;20087;-95
2021/09/14 06:08:36;;;;;;;9.57;6.43;;;14.40;89.90;;;;;;2050877;29;20047;-95
2021/09/14 06:09:55;;;;;;;8.65;6.13;;;14.50;89.80;;;;;;2047875;29;20035;-95
2021/09/14 06:11:14;;;;;;;8.85;6.22;;;14.50;89.80;;;;;;2058155;28;20051;-95
2021/09/14 06:12:34;;;;;;;10.27;6.70;;;14.50;89.70;;;;;;2069400;28;20058;-96
2021/09/14 06:13:53;;;;;;;9.55;6.53;;;14.60;89.70;;;;;;2050615;29;20047;-95
2021/09/14 06:15:12;;;;;;;11.25;6.50;;;14.60;89.50;;;;;;2060672;28;20034;-95
2021/09/14 06:16:31;;;;;;;8.73;6.47;;;14.70;89.50;;;;;;2064050;28;20075;-95
2021/09/14 06:17:51;;;;;;;9.30;6.60;;;14.70;89.50;;;;;;2058992;28;20051;-94
2021/09/14 06:19:11;;;;;;;9.43;6.25;;;14.70;89.40;;;;;;2059306;28;20043;-94
2021/09/14 06:20:31;;;;;;;;;;;14.70;89.30;;;;;;2054127;29;20039;-94
2021/09/14 06:21:50;;;;;;;10.70;7.20;;;14.70;89.20;;;;;;2057486;28;19910;-96
2021/09/14 06:23:09;;;;;;;9.13;7.13;;;14.80;89.20;;;;;;2059793;28;20035;-94
2021/09/14 06:24:29;;;;;;;9.20;6.93;;;14.80;89.20;;;;;;2061606;28;20047;-96
2021/09/14 06:25:48;;;;;;;7.63;6.13;;;14.80;89.20;;;;;;2061751;28;20117;-96
2021/09/14 06:27:08;;;;;;;9.88;6.95;;;14.80;89.30;;;;;;2067684;28;20070;-95
2021/09/14 06:28:27;;;;;;;9.48;6.57;;;14.80;89.20;;;;;;2049632;29;20051;-93
2021/09/14 06:29:46;;;;;;;9.05;6.53;;;14.90;89.10;;;;;;2042686;28;20046;-95
2021/09/14 06:31:05;;;;;;;9.60;6.15;;;14.90;89.10;;;;;;2046429;28;20479;-94
2021/09/14 06:32:25;;;;;;;8.73;6.68;;;15.00;89.00;;;;;;2043990;29;20118;-95
2021/09/14 06:33:44;;;;;;;8.82;6.25;;;15.00;88.90;;;;;;2035024;29;20044;-95
2021/09/14 06:35:04;;;;;;;9.23;7.00;;;15.00;89.40;;;;;;2044002;28;20051;-94
2021/09/14 06:36:23;;;;;;;9.77;7.18;;;15.00;88.80;;;;;;2050167;28;20035;-95
2021/09/14 06:37:42;;;;;;;10.32;6.82;;;15.00;88.80;;;;;;2050128;29;20457;-94
2021/09/14 06:39:02;;;;;;;10.30;6.93;;;15.00;88.70;;;;;;2047169;29;20035;-95
2021/09/14 06:40:21;;;;;;;10.38;6.63;;;15.00;88.80;;;;;;2049994;29;20049;-95
2021/09/14 06:41:40;;;;;;;10.02;7.22;;;15.00;88.80;;;;;;2046690;28;20043;-95
2021/09/14 06:43:00;;;;;;;11.25;7.80;;;15.10;88.80;;;;;;2039439;29;20510;-94
2021/09/14 06:44:19;;;;;;;9.68;7.65;;;15.00;88.70;;;;;;2047607;29;20035;-95
2021/09/14 06:45:38;;;;;;;11.52;7.90;;;15.10;88.70;;;;;;2050737;29;20070;-93
2021/09/14 06:46:57;;;;;;;11.48;7.65;;;15.10;89.30;;;;;;2050323;29;20050;-94
2021/09/14 06:48:17;;;;;;;10.30;7.50;;;15.10;88.60;;;;;;2055366;28;20035;-94
2021/09/14 06:49:36;;;;;;;9.38;6.97;;;15.10;88.60;;;;;;2066320;28;20042;-95
2021/09/14 06:50:56;;;;;;;11.77;7.82;;;15.10;88.60;;;;;;2053560;28;20035;-95
2021/09/14 06:52:16;;;;;;;9.70;7.50;;;15.20;88.60;;;;;;2047406;29;20035;-95
2021/09/14 06:53:35;;;;;;;10.47;7.43;;;15.10;88.50;;;;;;2047883;28;20061;-96
2021/09/14 06:54:55;;;;;;;10.75;7.10;;;15.20;88.40;;;;;;2049990;29;20279;-95
2021/09/14 06:56:14;;;;;;;9.88;6.97;;;15.20;88.40;;;;;;2034588;29;20056;-95
2021/09/14 06:57:33;;;;;;;9.77;6.63;;;15.20;88.40;;;;;;2036232;29;20048;-95
2021/09/14 06:58:52;;;;;;;9.07;6.60;;;15.20;88.30;;;;;;2051460;28;20031;-83
2021/09/14 07:00:12;;;;;;;8.57;6.25;;;15.30;88.30;;;;;;2058510;28;20050;-95
2021/09/14 07:01:31;;;;;;;9.82;7.50;;;15.30;88.30;;;;;;2055416;28;20046;-94
2021/09/14 07:02:50;;;;;;;9.82;7.57;;;15.30;88.20;;;;;;2050341;29;20039;-95
2021/09/14 07:04:10;;;;;;;8.73;6.97;;;15.40;88.10;;;;;;2031413;29;20052;-96
2021/09/14 07:05:29;;;;;;;9.35;7.00;;;15.30;88.00;;;;;;2046238;29;20044;-95
2021/09/14 07:06:50;;;;;;;8.60;6.25;;;15.40;88.10;;;;;;2044978;29;20114;-95
2021/09/14 07:08:09;;;;;;;8.80;6.45;;;15.40;88.00;;;;;;2036764;29;20059;-96
2021/09/14 07:09:28;;;;;;;10.05;7.50;;;15.40;88.00;;;;;;2041208;29;20534;-96
2021/09/14 07:10:48;;;;;;;9.55;6.97;;;15.40;87.90;;;;;;2045884;28;20039;-96
2021/09/14 07:12:08;;;;;;;9.98;7.20;;;15.40;87.90;;;;;;2046057;29;20122;-96
2021/09/14 07:13:27;;;;;;;10.93;7.40;;;15.40;87.90;;;;;;2063879;28;20436;-96
2021/09/14 07:14:46;;;;;;;10.43;7.45;;;15.40;88.40;;;;;;2060387;28;20042;-86
2021/09/14 07:16:05;;;;;;;9.38;6.50;;;15.40;87.90;;;;;;2050607;28;20043;-92
2021/09/14 07:17:25;;;;;;;9.07;6.70;;;15.40;87.90;;;;;;2040337;29;20060;-93
2021/09/14 07:18:44;;;;;;;10.35;7.53;;;15.50;88.00;;;;;;2048615;28;20051;-92
2021/09/14 07:20:06;;;;;;;10.52;6.93;;;15.50;87.90;;;;;;2056330;28;20035;-92
2021/09/14 07:21:28;;;;;;;8.18;6.45;;;15.50;87.80;;;;;;2059347;28;20043;-95
2021/09/14 07:22:47;;;;;;;11.23;7.43;;;15.50;87.80;;;;;;2038328;29;20035;-92
2021/09/14 07:24:06;;;;;;;8.50;6.68;;;15.50;87.70;;;;;;2058253;28;20125;-92
2021/09/14 07:25:27;;;;;;;8.85;6.45;;;15.50;87.70;;;;;;2047327;29;20047;-95
2021/09/14 07:26:46;;;;;;;10.32;7.30;;;15.50;88.20;;;;;;2053147;28;20090;-94
2021/09/14 07:28:07;;;;;;;8.27;6.10;;;15.50;87.60;;;;;;2036395;29;20040;-94
2021/09/14 07:29:28;;;;;;;8.45;6.13;;;15.60;87.70;;;;;;2047382;28;20034;-95
2021/09/14 07:30:47;;;;;;;8.65;6.03;;;15.60;87.60;;;;;;2048858;28;20086;-92
2021/09/14 07:32:06;;;;;;;8.73;6.18;;;15.60;87.60;;;;;;2046831;29;20031;-92
2021/09/14 07:33:26;;;;;;;9.05;6.63;;;15.60;87.60;;;;;;2054990;28;20039;-92
2021/09/14 07:34:45;;;;;;;9.40;7.15;;;15.60;87.60;;;;;;2035776;29;20044;-92
2021/09/14 07:36:08;;;;;;;9.00;6.28;;;15.70;87.50;;;;;;2027996;29;20059;-93
2021/09/14 07:37:27;;;;;;;8.35;6.43;;;15.70;87.50;;;;;;2055296;28;20509;-92
2021/09/14 07:38:46;;;;;;;8.40;6.20;;;15.80;87.50;;;;;;2056427;28;20039;-92
2021/09/14 07:40:06;;;;;;;9.90;6.47;;;15.80;87.40;;;;;;2056603;28;20401;-92
2021/09/14 07:41:25;;;;;;;8.30;6.18;;;15.90;87.30;;;;;;2063481;28;20054;-92
2021/09/14 07:42:45;;;;;;;7.97;5.70;;;15.90;87.20;;;;;;2043869;29;20158;-92
2021/09/14 07:44:04;;;;;;;8.20;5.85;;;16.00;87.10;;;;;;2043884;29;20043;-92
2021/09/14 07:45:24;;;;;;;8.57;6.10;;;16.00;87.00;;;;;;2047135;29;20035;-92
2021/09/14 07:46:43;;;;;;;7.90;5.65;;;16.10;86.80;;;;;;2026043;29;20044;-92
2021/09/14 07:48:03;;;;;;;9.05;5.38;;;16.10;86.70;;;;;;2040485;29;20526;-92
2021/09/14 07:49:22;;;;;;;6.97;5.43;;;16.10;86.60;;;;;;2050640;29;20028;-93